Time;durP1;ratioP1;P1;durP2;ratioP2;P2;SDS_P1;SDS_P2;PMS_P1;PMS_P2;Temp;Humidity;BMP_temperature;BMP_pressure;BME280_temperature;BME280_humidity;BME280_pressure;Samples;Min_cycle;Max_cycle;Signal;HPM_P1;HPM_P2
2022/11/20 00:00:25;;;;;;;;;92.33;90.00;;;;;9.35;74.59;100853.88;5036805;28;45290;-91
2022/11/20 00:02:50;;;;;;;;;96.25;95.00;;;;;9.32;74.55;100860.75;5030348;28;45558;-87
2022/11/20 00:05:16;;;;;;;;;60.75;52.00;;;;;9.32;74.55;100868.59;5014023;28;45418;-88
2022/11/20 00:07:42;;;;;;;;;98.20;97.00;;;;;9.32;74.72;100868.59;5014248;28;45491;-88
2022/11/20 00:10:07;;;;;;;;;94.25;93.00;;;;;9.45;74.70;100895.38;5023105;28;45530;-91
2022/11/20 00:12:33;;;;;;;;;102.50;102.00;;;;;9.53;74.53;100893.97;5033032;28;46461;-87
2022/11/20 00:14:58;;;;;;;;;96.25;95.00;;;;;9.26;74.30;100850.84;5034608;28;45437;-92
2022/11/20 00:17:23;;;;;;;;;96.00;94.50;;;;;9.50;74.66;100885.06;5043679;28;45634;-91
2022/11/20 00:19:49;;;;;;;;;96.33;96.00;;;;;9.38;74.45;100872.38;5041971;28;45294;-90
2022/11/20 00:22:14;;;;;;;;;113.67;113.67;;;;;9.40;74.77;100889.06;5043578;28;45021;-88
2022/11/20 00:24:39;;;;;;;;;114.33;114.33;;;;;9.31;74.45;100867.72;5049087;28;45178;-91
2022/11/20 00:27:05;;;;;;;;;116.00;116.00;;;;;9.26;74.27;100859.66;5047745;28;44988;-88
2022/11/20 00:29:30;;;;;;;;;110.75;110.75;;;;;9.17;74.36;100861.88;5049300;28;45093;-89
2022/11/20 00:31:55;;;;;;;;;107.75;107.75;;;;;9.32;74.69;100892.22;5049855;28;45030;-91
2022/11/20 00:34:21;;;;;;;;;123.75;123.75;;;;;9.23;74.51;100867.38;5030833;28;47343;-91
2022/11/20 00:36:46;;;;;;;;;111.50;111.50;;;;;9.32;74.40;100902.72;5049037;28;44972;-89
2022/11/20 00:39:11;;;;;;;;;128.75;128.75;;;;;9.12;74.71;100870.41;5048594;28;45196;-90
2022/11/20 00:41:36;;;;;;;;;127.33;127.33;;;;;8.94;74.62;100847.78;5048697;28;45142;-87
2022/11/20 00:44:02;;;;;;;;;114.50;114.50;;;;;9.13;74.58;100882.66;5049695;28;45913;-90
2022/11/20 00:46:27;;;;;;;;;137.67;137.67;;;;;8.44;74.70;100775.78;5049110;28;45307;-92
2022/11/20 00:48:53;;;;;;;;;125.50;125.50;;;;;9.09;74.73;100894.75;5048191;28;45000;-85
2022/11/20 00:51:21;;;;;;;;;125.00;125.00;;;;;8.86;74.63;100853.53;5048519;28;45010;-91
2022/11/20 00:53:46;;;;;;;;;131.60;131.60;;;;;9.14;74.65;100913.28;5048270;28;45597;-84
2022/11/20 00:56:14;;;;;;;;;131.60;131.60;;;;;8.70;74.61;100841.50;5049006;28;45147;-84
2022/11/20 00:58:42;;;;;;;;;129.25;129.25;;;;;9.07;74.57;100914.78;5049198;28;45217;-87
2022/11/20 01:01:19;;;;;;;;;126.00;125.80;;;;;9.08;74.70;100913.03;5052563;28;45077;-91
2022/11/20 01:03:47;;;;;;;;;107.40;107.40;;;;;9.11;74.59;100910.53;5052346;28;46203;-90
2022/11/20 01:06:24;;;;;;;;;118.25;118.25;;;;;8.87;74.34;100874.59;5053675;28;45135;-93
2022/11/20 01:08:50;;;;;;;;;120.25;120.25;;;;;8.62;74.25;100840.25;5051641;28;45199;-89
2022/11/20 01:11:19;;;;;;;;;111.80;111.80;;;;;9.05;74.37;100916.41;5051970;28;45021;-93
2022/11/20 01:13:47;;;;;;;;;112.20;112.20;;;;;9.05;74.30;100911.16;5051882;28;45390;-92
2022/11/20 01:16:15;;;;;;;;;114.40;114.40;;;;;9.04;74.31;100914.63;5051485;28;45280;-92
2022/11/20 01:18:43;;;;;;;;;110.75;110.75;;;;;8.34;74.25;100814.56;5052338;28;45070;-92
2022/11/20 01:21:17;;;;;;;;;119.00;119.00;;;;;8.99;74.37;100913.53;5051916;28;44902;-92
2022/11/20 01:23:43;;;;;;;;;114.25;114.25;;;;;8.97;74.50;100917.81;5051910;28;46177;-92
2022/11/20 01:26:15;;;;;;;;;111.00;111.00;;;;;8.63;74.35;100855.16;5047132;28;45135;-90
2022/11/20 01:28:41;;;;;;;;;137.25;137.25;;;;;8.53;74.58;100848.63;5041422;28;45144;-91
2022/11/20 01:31:15;;;;;;;;;133.40;133.40;;;;;8.91;74.29;100914.91;5051445;28;45333;-92
2022/11/20 01:33:42;;;;;;;;;160.20;160.20;;;;;8.30;74.11;100812.63;5034567;28;46952;-89
2022/11/20 01:36:09;;;;;;;;;155.20;155.20;;;;;8.52;74.22;100852.97;5051865;28;45462;-90
2022/11/20 01:38:34;;;;;;;;;167.75;167.75;;;;;8.87;74.34;100905.16;5051677;28;45123;-90
2022/11/20 01:40:59;;;;;;;;;170.00;170.00;;;;;8.70;74.54;100876.44;5071764;28;45157;-90
2022/11/20 01:43:26;;;;;;;;;165.50;165.50;;;;;8.74;74.53;100896.72;5073249;28;45910;-91
2022/11/20 01:46:17;;;;;;;;;166.60;165.80;;;;;8.68;74.77;100904.31;5072964;28;45037;-91
2022/11/20 01:49:03;;;;;;;;;166.60;166.00;;;;;8.58;74.51;100867.19;5071513;28;45454;-90
2022/11/20 01:51:31;;;;;;;;;163.80;163.80;;;;;8.74;74.54;100901.06;5071142;28;45491;-87
2022/11/20 01:54:02;;;;;;;;;161.17;161.17;;;;;8.51;74.42;100863.38;5071793;28;45762;-92
2022/11/20 01:56:34;;;;;;;;;147.83;147.83;;;;;8.59;74.80;100880.34;5072020;28;44932;-90
2022/11/20 01:59:01;;;;;;;;;160.40;159.40;;;;;8.42;74.38;100863.88;5071136;28;45018;-91
2022/11/20 02:01:27;;;;;;;;;151.67;151.33;;;;;8.33;74.69;100846.81;5072201;28;45453;-91
2022/11/20 02:03:53;;;;;;;;;145.75;145.50;;;;;8.46;74.54;100881.50;5070207;28;45335;-93
2022/11/20 02:06:38;;;;;;;;;146.40;146.00;;;;;8.57;74.60;100889.84;5070912;28;44654;-88
2022/11/20 02:09:03;;;;;;;;;163.40;163.20;;;;;8.25;74.81;100836.88;5068701;28;45414;-92
2022/11/20 02:11:30;;;;;;;;;141.25;140.25;;;;;8.48;74.48;100873.72;5070551;28;45429;-93
2022/11/20 02:13:56;;;;;;;;;151.00;150.50;;;;;8.49;74.47;100875.50;5071106;28;45475;-92
2022/11/20 02:16:25;;;;;;;;;152.25;151.75;;;;;8.56;74.53;100888.03;5070678;28;45139;-90
2022/11/20 02:18:53;;;;;;;;;150.00;149.40;;;;;8.55;74.64;100891.50;5052698;28;45275;-89
2022/11/20 02:21:25;;;;;;;;;141.00;141.00;;;;;8.59;74.48;100888.19;5069994;28;44968;-91
2022/11/20 02:24:11;;;;;;;;;141.50;141.50;;;;;8.57;74.32;100882.00;5052450;28;47529;-93
2022/11/20 02:26:46;;;;;;;;;153.67;153.67;;;;;8.47;74.37;100870.22;5051369;28;45024;-91
2022/11/20 02:29:16;;;;;;;;;154.50;154.33;;;;;8.55;74.55;100888.88;5070865;28;45330;-89
2022/11/20 02:31:43;;;;;;;;;146.60;145.60;;;;;8.50;74.48;100886.03;5071527;28;45129;-87
2022/11/20 02:34:08;;;;;;;;;154.60;153.80;;;;;8.49;74.61;100889.50;5065722;28;45525;-87
2022/11/20 02:36:36;;;;;;;;;150.20;150.20;;;;;8.50;74.75;100887.78;5046836;28;45107;-89
2022/11/20 02:39:03;;;;;;;;;154.17;154.17;;;;;8.32;74.71;100847.63;5051100;28;45398;-91
2022/11/20 02:41:36;;;;;;;;;147.20;147.20;;;;;8.49;74.53;100870.28;5052958;28;45214;-88
2022/11/20 02:44:03;;;;;;;;;152.17;151.67;;;;;8.31;74.34;100845.84;5053856;28;45481;-91
2022/11/20 02:46:28;;;;;;;;;149.33;149.33;;;;;8.32;74.39;100837.13;5053246;28;44961;-92
2022/11/20 02:48:53;;;;;;;;;148.80;148.40;;;;;7.87;74.31;100760.94;5037109;28;45026;-83
2022/11/20 02:51:19;;;;;;;;;157.00;157.00;;;;;8.42;74.55;100856.03;5051295;28;45215;-83
2022/11/20 02:53:44;;;;;;;;;152.00;152.00;;;;;8.11;74.40;100814.41;5032978;28;46138;-90
2022/11/20 02:56:10;;;;;;;;;155.75;155.75;;;;;8.21;74.60;100829.69;5046808;28;45233;-85
2022/11/20 02:58:35;;;;;;;;;146.60;146.60;;;;;8.20;74.71;100816.56;5051724;28;45037;-83
2022/11/20 03:01:00;;;;;;;;;162.25;162.25;;;;;8.15;74.58;100813.72;5050804;28;45171;-82
2022/11/20 03:03:26;;;;;;;;;157.25;157.25;;;;;8.07;74.67;100788.91;5051219;28;45967;-89
2022/11/20 03:05:51;;;;;;;;;164.75;163.75;;;;;8.18;74.35;100789.41;5051721;28;46672;-85
2022/11/20 03:08:16;;;;;;;;;152.00;150.75;;;;;8.39;74.57;100839.25;5052155;28;45119;-88
2022/11/20 03:10:42;;;;;;;;;158.75;158.75;;;;;8.27;74.45;100814.28;5051794;28;45257;-86
2022/11/20 03:13:07;;;;;;;;;156.33;154.00;;;;;8.33;74.31;100818.91;5051943;28;45315;-86
2022/11/20 03:15:32;;;;;;;;;159.75;159.75;;;;;8.24;74.49;100805.41;5050576;28;45018;-88
2022/11/20 03:17:58;;;;;;;;;152.25;151.75;;;;;8.16;74.31;100791.94;5051772;28;45075;-91
2022/11/20 03:20:23;;;;;;;;;158.33;158.33;;;;;8.17;74.42;100796.34;5051467;28;45156;-92
2022/11/20 03:22:48;;;;;;;;;155.75;155.75;;;;;8.19;74.45;100797.34;5051765;28;45274;-88
2022/11/20 03:25:13;;;;;;;;;148.00;148.00;;;;;8.23;74.32;100798.38;5051877;28;44902;-91
2022/11/20 03:27:39;;;;;;;;;162.00;161.25;;;;;8.25;74.47;100797.59;5051726;28;45040;-90
2022/11/20 03:30:05;;;;;;;;;156.25;156.25;;;;;8.26;74.40;100790.63;5051539;28;44958;-90
2022/11/20 03:32:31;;;;;;;;;142.75;142.75;;;;;8.20;74.39;100772.94;5033465;28;47315;-91
2022/11/20 03:34:56;;;;;;;;;154.40;154.20;;;;;8.06;74.31;100749.59;5051585;28;45237;-91
2022/11/20 03:37:21;;;;;;;;;169.50;169.50;;;;;8.18;74.43;100785.06;5033636;28;45003;-90
2022/11/20 03:39:47;;;;;;;;;167.00;167.00;;;;;8.37;74.36;100815.59;5050502;28;45347;-89
2022/11/20 03:44:56;;;;;;;;;162.40;161.20;;;;;8.21;74.37;100793.03;5050760;28;45015;-88
2022/11/20 03:47:21;;;;;;;;;162.00;162.00;;;;;8.26;74.62;100791.53;5051380;28;45081;-92
2022/11/20 03:49:47;;;;;;;;;166.00;166.00;;;;;8.13;74.62;100767.38;5050987;28;45196;-93
2022/11/20 03:52:12;;;;;;;;;161.60;161.00;;;;;8.39;74.74;100820.94;5051648;28;45516;-92
2022/11/20 03:54:37;;;;;;;;;168.25;167.50;;;;;8.25;74.52;100783.63;5051520;28;45116;-90
2022/11/20 03:57:03;;;;;;;;;164.80;164.40;;;;;7.87;74.53;100706.88;5051512;28;45116;-90
2022/11/20 03:59:28;;;;;;;;;156.25;156.25;;;;;8.26;74.55;100767.06;5051015;28;45081;-89
2022/11/20 04:01:53;;;;;;;;;161.25;161.25;;;;;8.44;74.49;100790.59;5051212;28;45342;-88
2022/11/20 04:04:18;;;;;;;;;160.80;160.00;;;;;7.74;74.64;100673.19;5051096;28;45226;-89
2022/11/20 04:06:44;;;;;;;;;167.80;167.80;;;;;8.32;74.43;100764.72;5052138;28;45006;-91
2022/11/20 04:09:09;;;;;;;;;167.00;166.25;;;;;8.41;74.55;100779.97;5051714;28;44995;-92
2022/11/20 04:11:36;;;;;;;;;163.25;163.25;;;;;8.56;74.61;100796.34;5051543;28;45840;-90
2022/11/20 04:14:05;;;;;;;;;160.50;160.50;;;;;8.71;74.46;100790.88;5051445;28;44973;-91
2022/11/20 04:16:33;;;;;;;;;156.80;156.80;;;;;8.46;74.36;100745.28;5051088;28;45286;-88
2022/11/20 04:19:00;;;;;;;;;164.25;164.25;;;;;8.77;73.97;100788.53;5050289;28;45152;-93
2022/11/20 04:21:27;;;;;;;;;157.60;155.20;;;;;8.82;74.23;100793.94;5033702;28;47157;-90
2022/11/20 04:23:53;;;;;;;;;164.80;163.80;;;;;8.75;74.17;100798.94;5051142;28;45019;-89
2022/11/20 04:26:19;;;;;;;;;162.25;162.25;;;;;8.48;73.82;100727.06;5051293;28;45247;-91
2022/11/20 04:28:44;;;;;;;;;158.20;158.20;;;;;8.57;73.86;100740.53;5051225;28;45275;-92
2022/11/20 04:31:11;;;;;;;;;158.00;158.00;;;;;8.84;74.03;100781.81;5049896;28;45482;-90
2022/11/20 04:33:37;;;;;;;;;158.20;158.20;;;;;8.83;74.02;100782.66;5049398;28;44962;-87
2022/11/20 04:36:20;;;;;;;;;149.67;149.67;;;;;8.83;73.91;100778.31;5051056;28;45115;-92
2022/11/20 04:38:50;;;;;;;;;159.40;159.40;;;;;8.70;73.85;100769.03;5050208;28;44974;-92
2022/11/20 04:41:18;;;;;;;;;165.00;165.00;;;;;8.73;73.95;100786.63;5050519;28;46067;-93
2022/11/20 04:43:52;;;;;;;;;159.40;159.40;;;;;8.49;73.85;100755.03;5051575;28;45129;-91
2022/11/20 04:46:20;;;;;;;;;163.60;163.60;;;;;8.57;74.13;100785.06;5051063;28;44902;-91
2022/11/20 04:48:45;;;;;;;;;163.75;163.75;;;;;8.35;74.06;100758.72;5050300;28;45185;-85
2022/11/20 04:51:12;;;;;;;;;178.75;178.75;;;;;8.25;74.24;100760.94;5050806;28;45941;-91
2022/11/20 04:53:37;;;;;;;;;173.50;173.50;;;;;8.12;74.60;100749.84;5031061;28;45210;-90
2022/11/20 04:56:09;;;;;;;;;179.80;179.80;;;;;8.34;74.58;100777.91;5050051;28;44994;-86
2022/11/20 04:58:35;;;;;;;;;172.00;172.00;;;;;8.30;74.31;100773.34;5048252;28;45135;-86
2022/11/20 05:01:11;;;;;;;;;165.20;165.20;;;;;8.33;74.32;100776.13;5031233;28;47739;-88
2022/11/20 05:03:36;;;;;;;;;162.50;161.67;;;;;7.78;74.16;100679.41;5050247;28;44926;-90
2022/11/20 05:06:03;;;;;;;;;166.50;166.33;;;;;8.18;74.45;100748.44;5050502;28;45131;-86
2022/11/20 05:08:30;;;;;;;;;170.40;169.40;;;;;8.28;74.59;100768.94;5048931;28;45522;-91
2022/11/20 05:11:06;;;;;;;;;170.83;170.83;;;;;8.32;74.63;100754.25;5048820;28;47357;-90
2022/11/20 05:13:31;;;;;;;;;158.50;158.50;;;;;8.37;74.44;100762.34;5032211;28;45164;-86
2022/11/20 05:16:06;;;;;;;;;161.50;160.75;;;;;8.30;74.68;100770.72;5049690;28;45169;-86
2022/11/20 05:18:34;;;;;;;;;153.50;153.25;;;;;8.16;74.45;100729.13;5050148;28;45136;-87
2022/11/20 05:20:59;;;;;;;;;160.50;160.33;;;;;7.92;74.35;100673.06;5049941;28;45643;-90
2022/11/20 05:23:25;;;;;;;;;160.00;159.60;;;;;8.21;74.53;100727.59;5049597;28;44926;-88
2022/11/20 05:25:55;;;;;;;;;152.50;152.50;;;;;8.39;74.39;100753.72;5050069;28;45010;-89
2022/11/20 05:28:21;;;;;;;;;157.67;157.67;;;;;8.22;74.49;100742.47;5031871;28;45018;-90
2022/11/20 05:30:47;;;;;;;;;151.33;151.00;;;;;8.34;74.47;100760.47;5050169;28;45152;-87
2022/11/20 05:33:13;;;;;;;;;142.67;142.50;;;;;8.21;74.30;100737.19;5049629;28;45254;-93
2022/11/20 05:35:38;;;;;;;;;142.80;140.20;;;;;8.19;74.45;100754.56;5050335;28;45019;-90
2022/11/20 05:38:03;;;;;;;;;147.00;146.60;;;;;7.94;74.46;100698.50;5033169;28;44950;-90
2022/11/20 05:40:29;;;;;;;;;139.75;135.75;;;;;8.19;74.54;100747.59;5050987;28;45183;-93
2022/11/20 05:42:54;;;;;;;;;145.25;145.25;;;;;8.14;74.74;100740.38;5050626;28;45033;-92
2022/11/20 05:45:19;;;;;;;;;138.75;138.75;;;;;7.82;74.42;100681.34;5042554;28;45256;-85
2022/11/20 05:47:45;;;;;;;;;149.00;148.75;;;;;8.00;74.70;100716.19;5066476;28;45278;-83
2022/11/20 05:50:10;;;;;;;;;145.25;144.75;;;;;8.18;74.63;100751.03;5067415;28;46099;-90
2022/11/20 05:52:35;;;;;;;;;142.20;142.20;;;;;8.05;74.58;100743.47;5067178;28;44789;-88
2022/11/20 05:55:01;;;;;;;;;138.50;137.75;;;;;7.89;74.84;100725.28;5066097;28;44907;-91
2022/11/20 05:57:26;;;;;;;;;140.25;140.25;;;;;7.43;74.82;100656.09;5067129;28;44758;-89
2022/11/20 05:59:52;;;;;;;;;140.75;140.25;;;;;7.47;75.16;100663.25;5066993;28;45277;-90
2022/11/20 06:02:17;;;;;;;;;145.00;145.00;;;;;7.83;75.22;100720.69;5059916;28;45144;-93
2022/11/20 06:04:42;;;;;;;;;141.00;141.00;;;;;7.85;74.99;100716.41;5055148;28;45271;-93
2022/11/20 06:07:08;;;;;;;;;141.25;140.50;;;;;8.00;74.78;100735.41;5055726;28;44894;-89
2022/11/20 06:09:34;;;;;;;;;147.75;147.75;;;;;7.97;74.97;100730.03;5053508;28;47818;-92
2022/11/20 06:11:59;;;;;;;;;137.60;137.40;;;;;8.05;75.03;100730.38;5055610;28;45165;-93
2022/11/20 06:14:25;;;;;;;;;134.75;134.75;;;;;7.98;74.91;100725.72;5055226;28;44847;-89
2022/11/20 06:16:50;;;;;;;;;142.60;142.60;;;;;8.10;74.91;100743.66;5054424;28;45001;-91
2022/11/20 06:19:16;;;;;;;;;144.50;144.50;;;;;7.90;74.97;100703.53;5053311;28;45705;-91
2022/11/20 06:21:41;;;;;;;;;148.00;148.00;;;;;7.95;75.02;100715.09;5053299;28;45076;-90
2022/11/20 06:24:09;;;;;;;;;137.33;137.33;;;;;8.08;74.94;100743.63;5053107;28;44829;-84
2022/11/20 06:26:34;;;;;;;;;143.67;143.00;;;;;7.98;75.05;100726.59;5052027;28;45116;-83
2022/11/20 06:29:00;;;;;;;;;143.60;142.20;;;;;7.43;75.03;100623.81;5052626;28;45822;-89
2022/11/20 06:31:26;;;;;;;;;141.75;141.25;;;;;7.76;74.94;100681.97;5051230;28;46062;-91
2022/11/20 06:33:51;;;;;;;;;145.00;145.00;;;;;7.73;74.86;100680.13;5053285;28;45182;-93
2022/11/20 06:36:20;;;;;;;;;137.80;136.00;;;;;7.93;75.00;100728.13;5053634;28;44975;-91
2022/11/20 06:38:45;;;;;;;;;149.80;149.20;;;;;7.70;75.14;100700.03;5052558;28;45977;-87
2022/11/20 06:41:13;;;;;;;;;155.67;154.00;;;;;7.85;75.12;100728.59;5052137;28;44848;-89
2022/11/20 06:43:39;;;;;;;;;154.00;153.50;;;;;7.85;75.36;100725.97;5044654;28;45057;-91
2022/11/20 06:46:05;;;;;;;;;149.00;148.20;;;;;7.52;75.39;100671.31;5052212;28;45179;-87
2022/11/20 06:48:30;;;;;;;;;149.00;148.00;;;;;7.93;75.30;100722.88;5052653;28;45856;-94
2022/11/20 06:50:56;;;;;;;;;140.00;139.00;;;;;7.77;75.36;100704.69;5052591;28;45105;-91
2022/11/20 06:53:23;;;;;;;;;152.75;152.25;;;;;7.64;75.16;100663.13;5051423;28;45053;-89
2022/11/20 06:55:49;;;;;;;;;145.60;145.60;;;;;7.97;75.05;100716.94;5052694;28;45018;-91
2022/11/20 06:58:15;;;;;;;;;146.50;146.00;;;;;8.06;74.94;100723.41;5051966;28;46031;-90
2022/11/20 07:00:41;;;;;;;;;149.60;149.60;;;;;7.73;74.95;100667.06;5052137;28;45005;-82
2022/11/20 07:03:08;;;;;;;;;153.50;153.25;;;;;7.86;75.10;100705.09;5052404;28;45136;-83
2022/11/20 07:05:35;;;;;;;;;152.40;152.40;;;;;8.13;74.84;100720.25;5050740;28;45246;-86
2022/11/20 07:08:00;;;;;;;;;155.00;154.20;;;;;8.24;75.05;100742.56;5052357;28;45748;-85
2022/11/20 07:10:26;;;;;;;;;158.50;158.50;;;;;8.13;75.21;100736.84;5052367;28;44954;-91
2022/11/20 07:12:52;;;;;;;;;152.50;152.50;;;;;8.32;75.52;100763.81;5052863;28;45110;-91
2022/11/20 07:15:22;;;;;;;;;159.20;157.80;;;;;8.22;74.98;100739.84;5051910;28;45160;-89
2022/11/20 07:17:47;;;;;;;;;153.40;152.80;;;;;8.36;74.63;100761.44;5028077;28;47409;-89
2022/11/20 07:20:13;;;;;;;;;162.75;162.75;;;;;8.37;75.03;100755.38;5042963;28;45337;-89
2022/11/20 07:22:39;;;;;;;;;168.80;168.40;;;;;7.55;74.85;100595.63;5050664;28;45010;-88
2022/11/20 07:25:06;;;;;;;;;166.00;166.00;;;;;8.45;75.61;100756.59;5028163;28;45004;-87
2022/11/20 07:27:31;;;;;;;;;173.60;172.60;;;;;7.53;75.45;100594.63;5047460;28;47897;-85
2022/11/20 07:29:57;;;;;;;;;176.40;176.20;;;;;7.80;75.28;100635.94;5047185;28;45101;-85
2022/11/20 07:32:22;;;;;;;;;158.80;158.40;;;;;8.47;75.47;100754.97;5045651;28;45748;-87
2022/11/20 07:34:48;;;;;;;;;170.25;168.50;;;;;8.48;75.29;100753.25;5028482;28;45341;-88
2022/11/20 07:37:14;;;;;;;;;174.50;174.00;;;;;8.30;75.46;100715.75;5033075;28;46511;-85
2022/11/20 07:39:39;;;;;;;;;168.80;168.80;;;;;8.41;75.68;100733.72;5012567;28;45359;-87
2022/11/20 07:42:06;;;;;;;;;169.00;167.75;;;;;8.54;75.63;100753.50;5016954;28;45622;-83
2022/11/20 07:44:32;;;;;;;;;178.80;177.60;;;;;8.58;75.53;100760.66;5031042;28;45531;-82
2022/11/20 07:46:57;;;;;;;;;186.80;186.20;;;;;8.58;75.27;100750.19;5031121;28;45334;-83
2022/11/20 07:49:22;;;;;;;;;184.20;183.40;;;;;8.53;75.38;100726.41;5029307;28;45760;-84
2022/11/20 07:51:51;;;;;;;;;191.20;190.40;;;;;8.52;75.57;100719.38;5007435;28;45437;-86
2022/11/20 07:54:16;;;;;;;;;199.67;199.67;;;;;8.65;75.43;100728.63;5037343;28;45439;-86
2022/11/20 07:56:41;;;;;;;;;193.80;192.60;;;;;8.79;75.39;100743.22;5047131;28;45168;-86
2022/11/20 07:59:06;;;;;;;;;191.00;191.00;;;;;8.60;75.16;100695.22;5048943;28;45525;-85
2022/11/20 08:01:32;;;;;;;;;192.80;192.80;;;;;8.87;74.83;100729.56;5049652;28;45141;-82
2022/11/20 08:03:57;;;;;;;;;206.40;206.40;;;;;8.74;74.67;100715.94;5049204;28;45073;-82
2022/11/20 08:06:24;;;;;;;;;194.75;194.75;;;;;8.88;74.33;100737.47;5024595;28;63304;-83
2022/11/20 08:08:50;;;;;;;;;207.00;207.00;;;;;8.76;74.12;100715.97;5033433;28;45441;-83
2022/11/20 08:14:15;;;;;;;;;215.40;215.40;;;;;8.86;74.27;100727.72;5017935;28;45361;-82
2022/11/20 08:16:48;;;;;;;;;207.00;207.00;;;;;8.94;74.54;100731.56;5034914;28;46572;-81
2022/11/20 08:19:15;;;;;;;;;196.60;195.80;;;;;8.75;74.14;100691.50;5028261;28;45748;-82
2022/11/20 08:21:41;;;;;;;;;182.80;182.80;;;;;8.79;73.92;100693.44;5034941;28;45497;-79
2022/11/20 08:24:08;;;;;;;;;174.60;174.60;;;;;8.73;73.78;100682.69;5032082;28;45781;-83
2022/11/20 08:26:37;;;;;;;;;160.80;160.80;;;;;8.75;73.88;100683.66;5025536;28;47745;-82
2022/11/20 08:29:03;;;;;;;;;162.25;162.25;;;;;9.06;73.68;100726.81;5030333;28;45691;-83
2022/11/20 08:31:29;;;;;;;;;154.40;154.40;;;;;9.05;73.50;100728.53;5032454;28;45582;-82
2022/11/20 08:33:55;;;;;;;;;155.80;155.80;;;;;8.89;73.59;100694.69;5022653;28;45548;-82
2022/11/20 08:36:22;;;;;;;;;155.80;155.80;;;;;8.74;73.62;100665.25;5014029;28;47124;-82
2022/11/20 08:38:49;;;;;;;;;151.40;151.40;;;;;9.06;73.68;100713.69;5030678;28;45423;-81
2022/11/20 08:41:23;;;;;;;;;136.40;136.40;;;;;8.73;73.66;100656.50;5031271;28;45327;-83
2022/11/20 08:44:09;;;;;;;;;150.40;150.40;;;;;8.99;73.92;100691.59;5033299;28;45442;-81
2022/11/20 08:46:40;;;;;;;;;143.60;143.60;;;;;9.03;73.65;100705.75;5008567;28;46686;-81
2022/11/20 08:49:08;;;;;;;;;155.80;155.80;;;;;9.02;73.58;100701.34;5028696;28;45439;-83
2022/11/20 08:51:33;;;;;;;;;146.00;146.00;;;;;8.99;73.70;100702.09;5031306;28;45632;-84
2022/11/20 08:53:59;;;;;;;;;157.40;157.40;;;;;9.00;73.55;100695.13;5030801;28;45222;-87
2022/11/20 08:56:24;;;;;;;;;150.40;150.40;;;;;8.80;73.32;100655.00;5030628;28;46170;-84
2022/11/20 08:58:52;;;;;;;;;141.80;141.80;;;;;8.55;73.39;100595.50;5031711;28;45277;-82
2022/11/20 09:01:18;;;;;;;;;143.60;143.60;;;;;9.04;73.51;100676.94;5028418;28;45459;-80
2022/11/20 09:03:43;;;;;;;;;140.80;140.80;;;;;9.00;73.63;100666.28;5031468;28;45672;-80
2022/11/20 09:06:09;;;;;;;;;140.25;140.25;;;;;8.99;73.52;100664.50;5033856;28;45703;-82
2022/11/20 09:08:35;;;;;;;;;154.40;154.40;;;;;9.10;73.98;100671.06;5032873;28;45666;-80
2022/11/20 09:11:02;;;;;;;;;152.60;152.60;;;;;9.16;73.83;100679.19;5031706;28;45626;-86
2022/11/20 09:13:28;;;;;;;;;154.40;154.40;;;;;8.94;74.22;100631.97;5027166;28;45541;-86
2022/11/20 09:16:04;;;;;;;;;168.80;168.80;;;;;9.26;74.48;100656.78;5010286;28;47330;-84
2022/11/20 09:18:31;;;;;;;;;178.20;177.60;;;;;9.35;74.36;100656.25;5022313;28;45624;-83
2022/11/20 09:21:01;;;;;;;;;178.33;178.33;;;;;9.51;74.35;100663.91;5032547;28;45653;-82
2022/11/20 09:23:28;;;;;;;;;167.80;167.80;;;;;9.49;74.26;100652.44;5033829;28;45249;-83
2022/11/20 09:25:55;;;;;;;;;160.50;160.50;;;;;9.05;74.61;100575.59;5012439;28;47076;-86
2022/11/20 09:28:27;;;;;;;;;144.60;144.60;;;;;8.98;74.36;100557.88;5031711;28;45570;-88
2022/11/20 09:30:52;;;;;;;;;121.17;121.17;;;;;8.95;74.49;100550.78;5031909;28;45305;-85
2022/11/20 09:33:17;;;;;;;;;117.40;117.40;;;;;8.82;74.74;100526.66;5032417;28;45479;-85
2022/11/20 09:35:44;;;;;;;;;101.25;100.50;;;;;9.62;74.80;100633.69;5031123;28;46980;-83
2022/11/20 09:38:10;;;;;;;;;98.80;96.40;;;;;9.52;74.98;100606.22;5033894;28;45329;-84
2022/11/20 09:40:49;;;;;;;;;95.80;93.20;;;;;9.48;75.04;100590.31;5035012;28;45783;-84
2022/11/20 09:43:27;;;;;;;;;94.25;91.00;;;;;9.10;75.38;100519.00;5033840;28;45549;-84
2022/11/20 09:46:14;;;;;;;;;87.20;81.00;;;;;9.91;74.98;100625.97;5013399;28;47385;-84
2022/11/20 09:48:48;;;;;;;;;87.25;79.75;;;;;9.93;74.49;100619.03;5032779;28;45591;-85
2022/11/20 09:51:44;;;;;;;;;95.75;92.25;;;;;9.86;74.79;100620.56;5026580;28;45718;-85
2022/11/20 09:54:22;;;;;;;;;107.75;107.25;;;;;9.71;75.38;100591.16;5027705;28;45772;-86
2022/11/20 09:56:53;;;;;;;;;103.50;102.50;;;;;9.92;75.47;100625.13;5033941;28;46694;-84
2022/11/20 10:00:00;;;;;;;;;125.00;124.00;;;;;9.97;75.48;100616.56;5033684;28;45418;-82
2022/11/20 10:02:42;;;;;;;;;122.20;122.20;;;;;9.98;75.45;100618.34;4985828;28;45343;-87
2022/11/20 10:05:29;;;;;;;;;111.20;111.20;;;;;9.39;75.23;100512.19;5031959;28;45768;-84
2022/11/20 10:08:04;;;;;;;;;123.40;123.40;;;;;10.09;75.42;100619.59;5025575;28;49800;-84
2022/11/20 10:10:50;;;;;;;;;109.80;109.80;;;;;9.95;75.44;100576.25;5031506;28;45499;-86
2022/11/20 10:13:28;;;;;;;;;103.80;103.80;;;;;10.17;75.15;100621.63;5034305;28;45466;-86
2022/11/20 10:15:59;;;;;;;;;107.60;107.60;;;;;10.11;75.41;100611.81;5031127;28;45440;-84
2022/11/20 10:18:54;;;;;;;;;97.25;97.25;;;;;9.54;75.52;100523.22;5028525;28;48528;-88
2022/11/20 10:21:36;;;;;;;;;108.40;108.40;;;;;9.97;75.67;100590.31;5029261;28;45469;-84
2022/11/20 10:24:13;;;;;;;;;98.00;97.80;;;;;9.93;75.98;100582.28;5030809;28;45573;-86
2022/11/20 10:27:17;;;;;;;;;92.75;89.50;;;;;10.01;76.69;100583.44;5032621;28;45327;-89
2022/11/20 10:29:53;;;;;;;;;95.75;94.50;;;;;9.97;76.77;100574.56;5002794;28;47526;-84
2022/11/20 10:32:23;;;;;;;;;92.60;90.60;;;;;9.94;77.00;100561.31;5032912;28;45598;-86
2022/11/20 10:35:03;;;;;;;;;88.00;81.50;;;;;10.00;76.98;100518.63;5022397;28;47288;-85
2022/11/20 10:37:32;;;;;;;;;90.50;85.50;;;;;9.94;76.52;100507.94;5013286;28;45493;-85
2022/11/20 10:40:29;;;;;;;;;87.00;79.50;;;;;10.06;76.46;100513.59;5032931;28;46006;-84
2022/11/20 10:43:16;;;;;;;;;86.50;79.50;;;;;10.39;76.72;100568.97;5018597;28;45823;-86
2022/11/20 10:45:50;;;;;;;;;85.50;76.25;;;;;10.44;77.20;100556.91;5032272;28;45576;-83
2022/11/20 10:48:21;;;;;;;;;82.60;72.60;;;;;10.49;77.29;100568.47;5030248;28;45645;-84
2022/11/20 10:50:59;;;;;;;;;82.60;72.40;;;;;10.60;77.29;100566.16;5016540;28;45553;-86
2022/11/20 10:54:08;;;;;;;;;81.40;70.80;;;;;10.72;76.94;100571.78;5013663;28;45764;-85
2022/11/20 10:56:50;;;;;;;;;81.00;69.80;;;;;10.58;77.01;100558.19;5029423;28;45573;-85
2022/11/20 10:59:51;;;;;;;;;74.60;62.00;;;;;10.61;77.14;100567.94;5036299;28;45328;-86
2022/11/20 11:02:20;;;;;;;;;85.60;76.80;;;;;10.26;77.29;100504.66;5032629;28;45644;-83
2022/11/20 11:04:48;;;;;;;;;89.00;83.20;;;;;10.45;77.48;100550.81;5034181;28;45554;-86
2022/11/20 11:07:33;;;;;;;;;89.20;84.60;;;;;10.57;77.69;100555.53;5036389;28;45229;-85
2022/11/20 11:09:59;;;;;;;;;99.40;99.40;;;;;9.99;78.07;100464.34;5033310;28;45408;-84
2022/11/20 11:12:27;;;;;;;;;97.25;97.25;;;;;9.97;77.69;100450.28;5037858;28;45466;-84
2022/11/20 11:14:55;;;;;;;;;95.80;95.80;;;;;10.60;78.39;100547.75;5031905;28;45453;-83